createdAt,value
2023-03-22T00:00:29.225Z,100.00
2023-03-22T00:02:58.179Z,100.00
2023-03-22T00:05:26.539Z,100.00
2023-03-22T00:08:14.638Z,100.00
2023-03-22T00:10:44.285Z,100.00
2023-03-22T00:13:12.998Z,100.00
2023-03-22T00:15:44.825Z,100.00
2023-03-22T00:18:21.766Z,100.00
2023-03-22T00:20:50.843Z,100.00
2023-03-22T00:23:19.014Z,100.00
2023-03-22T00:25:47.848Z,100.00
2023-03-22T00:28:16.579Z,100.00
2023-03-22T00:30:55.875Z,100.00
2023-03-22T00:33:25.701Z,100.00
2023-03-22T00:35:55.028Z,100.00
2023-03-22T00:38:35.953Z,100.00
2023-03-22T00:41:13.716Z,100.00
2023-03-22T00:43:46.430Z,100.00
2023-03-22T00:46:15.026Z,100.00
2023-03-22T00:48:43.722Z,100.00
2023-03-22T00:51:12.421Z,100.00
2023-03-22T00:53:43.358Z,100.00
2023-03-22T00:56:16.070Z,100.00
2023-03-22T00:58:48.412Z,100.00
2023-03-22T01:01:17.608Z,100.00
2023-03-22T01:03:50.190Z,100.00
2023-03-22T01:06:18.708Z,100.00
2023-03-22T01:08:47.129Z,100.00
2023-03-22T01:11:19.145Z,100.00
2023-03-22T01:13:48.183Z,100.00
2023-03-22T01:16:16.502Z,100.00
2023-03-22T01:18:44.862Z,100.00
2023-03-22T01:21:13.231Z,100.00
2023-03-22T01:23:41.636Z,100.00
2023-03-22T01:26:09.844Z,100.00
2023-03-22T01:28:40.708Z,100.00
2023-03-22T01:31:08.994Z,100.00
2023-03-22T01:33:37.977Z,100.00
2023-03-22T01:36:06.623Z,100.00
2023-03-22T01:38:35.913Z,100.00
2023-03-22T01:41:04.574Z,100.00
2023-03-22T01:43:35.709Z,100.00
2023-03-22T01:46:04.991Z,100.00
2023-03-22T01:48:34.876Z,100.00
2023-03-22T01:51:05.342Z,100.00
2023-03-22T01:53:42.174Z,100.00
2023-03-22T01:56:10.535Z,100.00
2023-03-22T01:58:39.065Z,100.00
2023-03-22T02:01:07.851Z,100.00
2023-03-22T02:04:08.128Z,100.00
2023-03-22T02:06:38.474Z,100.00
2023-03-22T02:09:11.475Z,100.00
2023-03-22T02:11:41.796Z,100.00
2023-03-22T02:14:28.675Z,100.00
2023-03-22T02:17:15.019Z,100.00
2023-03-22T02:20:10.254Z,100.00
2023-03-22T02:22:41.946Z,100.00
2023-03-22T02:25:17.773Z,100.00
2023-03-22T02:28:04.717Z,100.00
2023-03-22T02:30:36.439Z,100.00
2023-03-22T02:33:25.168Z,100.00
2023-03-22T02:36:06.441Z,100.00
2023-03-22T02:38:52.904Z,100.00
2023-03-22T02:41:39.592Z,100.00
2023-03-22T02:44:13.728Z,100.00
2023-03-22T02:46:43.752Z,100.00
2023-03-22T02:49:33.380Z,100.00
2023-03-22T02:52:03.825Z,100.00
2023-03-22T02:54:37.067Z,100.00
2023-03-22T02:57:08.128Z,100.00
2023-03-22T02:59:38.419Z,100.00
2023-03-22T03:02:06.844Z,100.00
2023-03-22T03:04:36.516Z,100.00
2023-03-22T03:07:07.289Z,100.00
2023-03-22T03:09:36.081Z,100.00
2023-03-22T03:12:23.944Z,100.00
2023-03-22T03:14:54.536Z,100.00
2023-03-22T03:17:24.773Z,100.00
2023-03-22T03:20:08.691Z,100.00
2023-03-22T03:22:40.275Z,100.00
2023-03-22T03:25:11.636Z,100.00
2023-03-22T03:27:41.122Z,100.00
2023-03-22T03:30:11.591Z,100.00
2023-03-22T03:32:59.584Z,100.00
2023-03-22T03:35:38.608Z,100.00
2023-03-22T03:38:08.944Z,100.00
2023-03-22T03:40:47.872Z,100.00
2023-03-22T03:43:16.620Z,100.00
2023-03-22T03:45:45.898Z,100.00
2023-03-22T03:48:18.913Z,100.00
2023-03-22T03:50:47.644Z,100.00
2023-03-22T03:53:17.024Z,100.00
2023-03-22T03:55:45.488Z,100.00
2023-03-22T03:58:16.374Z,100.00
2023-03-22T04:00:46.267Z,100.00
2023-03-22T04:03:34.852Z,100.00
2023-03-22T04:06:15.133Z,100.00
2023-03-22T04:08:47.019Z,100.00
2023-03-22T04:11:18.278Z,100.00
2023-03-22T04:13:50.424Z,100.00
2023-03-22T04:16:21.664Z,100.00
2023-03-22T04:18:52.929Z,100.00
2023-03-22T04:21:21.907Z,100.00
2023-03-22T04:23:59.963Z,100.00
2023-03-22T04:26:30.641Z,100.00
2023-03-22T04:29:32.336Z,100.00
2023-03-22T04:32:24.267Z,100.00
2023-03-22T04:34:53.460Z,100.00
2023-03-22T04:37:24.724Z,100.00
2023-03-22T04:40:16.671Z,100.00
2023-03-22T04:43:04.229Z,100.00
2023-03-22T04:45:58.410Z,100.00
2023-03-22T04:48:32.761Z,100.00
2023-03-22T04:51:04.573Z,100.00
2023-03-22T04:53:40.442Z,100.00
2023-03-22T04:56:12.646Z,100.00
2023-03-22T04:58:42.262Z,100.00
2023-03-22T05:01:15.601Z,100.00
2023-03-22T05:03:47.977Z,100.00
2023-03-22T05:06:17.504Z,100.00
2023-03-22T05:08:59.619Z,100.00
2023-03-22T05:11:28.399Z,100.00
2023-03-22T05:14:15.805Z,100.00
2023-03-22T05:16:46.951Z,100.00
2023-03-22T05:19:17.071Z,100.00
2023-03-22T05:21:49.248Z,100.00
2023-03-22T05:24:17.520Z,100.00
2023-03-22T05:26:47.488Z,100.00
2023-03-22T05:29:15.710Z,100.00
2023-03-22T05:32:07.628Z,100.00
2023-03-22T05:34:37.234Z,100.00
2023-03-22T05:37:24.714Z,100.00
2023-03-22T05:40:02.661Z,100.00
2023-03-22T05:42:37.861Z,100.00
2023-03-22T05:45:15.014Z,100.00
2023-03-22T05:47:44.712Z,100.00
2023-03-22T05:50:17.271Z,100.00
2023-03-22T05:52:46.671Z,100.00
2023-03-22T05:55:32.236Z,100.00
2023-03-22T05:58:05.401Z,100.00
2023-03-22T06:00:38.746Z,95.96
2023-03-22T06:03:23.017Z,83.14
2023-03-22T06:06:07.117Z,76.23
2023-03-22T06:09:10.698Z,71.34
2023-03-22T06:11:51.470Z,68.08
2023-03-22T06:14:20.589Z,66.57
2023-03-22T06:17:33.287Z,65.30
2023-03-22T06:20:01.992Z,64.40
2023-03-22T06:22:33.544Z,63.64
2023-03-22T06:25:01.966Z,62.16
2023-03-22T06:27:40.385Z,58.25
2023-03-22T06:30:09.589Z,56.43
2023-03-22T06:32:48.621Z,55.91
2023-03-22T06:35:17.172Z,55.89
2023-03-22T06:37:46.915Z,56.50
2023-03-22T06:40:15.522Z,56.92
2023-03-22T06:42:44.997Z,57.52
2023-03-22T06:45:16.657Z,57.39
2023-03-22T06:47:47.118Z,56.81
2023-03-22T06:50:38.483Z,56.16
2023-03-22T06:53:21.001Z,53.79
2023-03-22T06:55:50.167Z,52.00
2023-03-22T06:58:23.984Z,50.97
2023-03-22T07:00:52.409Z,49.90
2023-03-22T07:03:22.366Z,48.78
2023-03-22T07:05:53.714Z,47.22
2023-03-22T07:08:22.493Z,45.81
2023-03-22T07:10:53.001Z,44.44
2023-03-22T07:13:23.660Z,43.97
2023-03-22T07:15:57.523Z,42.98
2023-03-22T07:18:41.604Z,42.72
2023-03-22T07:21:10.042Z,42.85
2023-03-22T07:23:39.925Z,42.52
2023-03-22T07:26:13.548Z,42.64
2023-03-22T07:28:47.067Z,43.34
2023-03-22T07:31:17.020Z,44.03
2023-03-22T07:33:52.354Z,44.66
2023-03-22T07:36:24.019Z,44.30
2023-03-22T07:38:53.001Z,43.77
2023-03-22T07:41:30.372Z,43.03
2023-03-22T07:44:18.470Z,41.85
2023-03-22T07:47:30.596Z,41.00
2023-03-22T07:50:26.354Z,40.13
2023-03-22T07:52:57.825Z,39.88
2023-03-22T07:55:26.838Z,38.90
2023-03-22T07:57:55.258Z,38.76
2023-03-22T08:00:24.165Z,38.37
2023-03-22T08:03:02.770Z,38.06
2023-03-22T08:05:51.880Z,37.18
2023-03-22T08:08:20.867Z,36.88
2023-03-22T08:10:51.757Z,36.79
2023-03-22T08:13:20.625Z,36.77
2023-03-22T08:15:48.969Z,37.06
2023-03-22T08:18:21.891Z,36.24
2023-03-22T08:20:56.599Z,35.61
2023-03-22T08:23:40.495Z,35.69
2023-03-22T08:26:28.515Z,35.47
2023-03-22T08:29:01.508Z,34.77
2023-03-22T08:31:31.941Z,33.58
2023-03-22T08:34:00.481Z,33.60
2023-03-22T08:36:29.725Z,33.93
2023-03-22T08:39:01.717Z,33.49
2023-03-22T08:41:52.869Z,32.61
2023-03-22T08:44:21.634Z,33.16
2023-03-22T08:46:49.875Z,32.72
2023-03-22T08:49:18.169Z,32.15
2023-03-22T08:51:54.529Z,31.31
2023-03-22T08:54:37.096Z,31.72
2023-03-22T08:57:09.601Z,30.82
2023-03-22T09:00:01.290Z,31.07
2023-03-22T09:02:46.274Z,30.83
2023-03-22T09:05:14.836Z,30.68
2023-03-22T09:07:46.366Z,30.45
2023-03-22T09:10:25.023Z,30.95
2023-03-22T09:12:53.657Z,31.59
2023-03-22T09:15:22.033Z,31.84
2023-03-22T09:18:02.529Z,32.00
2023-03-22T09:20:31.375Z,32.15
2023-03-22T09:22:59.643Z,32.38
2023-03-22T09:25:28.812Z,32.09
2023-03-22T09:27:57.558Z,32.75
2023-03-22T09:30:30.535Z,33.68
2023-03-22T09:32:58.842Z,34.32
2023-03-22T09:35:27.142Z,34.62
2023-03-22T09:38:00.020Z,34.97
2023-03-22T09:40:32.206Z,34.95
2023-03-22T09:43:01.560Z,34.78
2023-03-22T09:45:38.759Z,34.68
2023-03-22T09:48:12.283Z,34.82
2023-03-22T09:50:46.710Z,35.26
2023-03-22T09:53:15.633Z,35.75
2023-03-22T09:55:50.231Z,35.55
2023-03-22T09:58:26.404Z,35.22
2023-03-22T10:01:02.420Z,35.67
2023-03-22T10:03:40.052Z,36.03
2023-03-22T10:06:08.668Z,36.55
2023-03-22T10:08:44.813Z,36.23
2023-03-22T10:11:17.216Z,36.43
2023-03-22T10:14:08.809Z,35.38
2023-03-22T10:16:37.558Z,36.09
2023-03-22T10:19:13.740Z,36.85
2023-03-22T10:21:42.595Z,37.11
2023-03-22T10:24:15.557Z,37.54
2023-03-22T10:26:45.353Z,38.36
2023-03-22T10:29:27.465Z,38.96
2023-03-22T10:31:55.803Z,39.18
2023-03-22T10:34:28.200Z,38.86
2023-03-22T10:36:57.220Z,39.65
2023-03-22T10:39:25.420Z,40.20
2023-03-22T10:41:56.336Z,39.86
2023-03-22T10:44:26.413Z,38.88
2023-03-22T10:46:59.551Z,39.23
2023-03-22T10:49:29.764Z,39.38
2023-03-22T10:52:00.140Z,39.38
2023-03-22T10:54:28.822Z,39.34
2023-03-22T10:56:57.358Z,39.42
2023-03-22T10:59:44.504Z,39.41
2023-03-22T11:02:22.385Z,38.85
2023-03-22T11:04:54.919Z,38.76
2023-03-22T11:07:27.989Z,38.96
2023-03-22T11:10:08.390Z,38.62
2023-03-22T11:12:40.134Z,38.83
2023-03-22T11:15:38.727Z,39.19
2023-03-22T11:18:16.630Z,39.52
2023-03-22T11:20:56.917Z,40.08
2023-03-22T11:23:27.096Z,40.33
2023-03-22T11:25:56.369Z,40.29
2023-03-22T11:28:29.087Z,39.17
2023-03-22T11:31:03.689Z,39.13
2023-03-22T11:33:34.252Z,39.78
2023-03-22T11:36:21.644Z,40.08
2023-03-22T11:38:50.429Z,40.71
2023-03-22T11:41:25.773Z,40.89
2023-03-22T11:43:54.868Z,41.32
2023-03-22T11:46:23.814Z,41.29
2023-03-22T11:48:52.436Z,41.20
2023-03-22T11:51:29.935Z,41.18
2023-03-22T11:54:02.464Z,41.60
2023-03-22T11:56:30.840Z,41.79
2023-03-22T11:59:04.210Z,42.20
2023-03-22T12:01:35.752Z,42.15
2023-03-22T12:04:05.471Z,42.64
2023-03-22T12:06:34.453Z,43.26
2023-03-22T12:09:07.131Z,43.58
2023-03-22T12:11:41.720Z,43.86
2023-03-22T12:14:37.466Z,43.94
2023-03-22T12:17:32.642Z,44.24
2023-03-22T12:20:08.769Z,44.43
2023-03-22T12:22:42.335Z,44.80
2023-03-22T12:25:17.559Z,44.95
2023-03-22T12:27:50.265Z,44.95
2023-03-22T12:30:23.195Z,45.00
2023-03-22T12:32:52.510Z,45.06
2023-03-22T12:35:28.376Z,45.40
2023-03-22T12:37:57.218Z,45.19
2023-03-22T12:40:29.365Z,45.53
2023-03-22T12:43:09.559Z,45.58
2023-03-22T12:45:44.360Z,45.82
2023-03-22T12:48:14.228Z,45.97
2023-03-22T12:50:44.118Z,46.22
2023-03-22T12:53:13.837Z,45.86
2023-03-22T12:55:42.884Z,45.61
2023-03-22T12:58:13.092Z,45.89
2023-03-22T13:00:53.335Z,45.86
2023-03-22T13:03:24.608Z,46.03
2023-03-22T13:06:01.296Z,46.25
2023-03-22T13:08:49.937Z,46.39
2023-03-22T13:11:26.903Z,46.72
2023-03-22T13:13:58.649Z,46.46
2023-03-22T13:16:42.403Z,46.71
2023-03-22T13:19:17.833Z,46.39
2023-03-22T13:21:48.092Z,46.59
2023-03-22T13:24:16.498Z,46.52
2023-03-22T13:26:49.556Z,46.34
2023-03-22T13:29:18.982Z,46.38
2023-03-22T13:31:54.048Z,46.39
2023-03-22T13:34:30.106Z,46.60
2023-03-22T13:36:58.642Z,46.74
2023-03-22T13:39:28.475Z,46.97
2023-03-22T13:42:13.638Z,47.35
2023-03-22T13:44:46.271Z,47.38
2023-03-22T13:47:31.728Z,47.10
2023-03-22T13:50:01.343Z,46.69
2023-03-22T13:52:49.886Z,46.81
2023-03-22T13:55:37.603Z,46.61
2023-03-22T13:58:08.017Z,46.77
2023-03-22T14:00:56.059Z,46.69
2023-03-22T14:03:26.939Z,46.32
2023-03-22T14:06:04.500Z,46.34
2023-03-22T14:08:35.648Z,46.19
2023-03-22T14:11:22.735Z,46.06
2023-03-22T14:14:00.778Z,46.37
2023-03-22T14:16:32.884Z,46.34
2023-03-22T14:19:01.975Z,46.04
2023-03-22T14:21:34.551Z,46.14
